Time;durP1;ratioP1;P1;durP2;ratioP2;P2;SDS_P1;SDS_P2;PMS_P1;PMS_P2;Temp;Humidity;BMP_temperature;BMP_pressure;BME280_temperature;BME280_humidity;BME280_pressure;Samples;Min_cycle;Max_cycle;Signal;HPM_P1;HPM_P2
2021/09/07 00:00:36;;;;;;;14.57;9.57;;;13.00;99.90;;;;;;5006510;28;20567;-60
2021/09/07 00:03:01;;;;;;;13.90;8.73;;;13.00;99.90;;;;;;5003271;28;20427;-59
2021/09/07 00:05:29;;;;;;;16.63;9.60;;;12.90;99.90;;;;;;5001410;28;20550;-61
2021/09/07 00:07:55;;;;;;;15.67;10.60;;;12.90;99.90;;;;;;5007558;28;20673;-61
2021/09/07 00:10:21;;;;;;;12.33;8.60;;;12.90;99.90;;;;;;4999021;28;20447;-60
2021/09/07 00:12:47;;;;;;;14.80;9.10;;;12.90;99.90;;;;;;4989866;28;20175;-59
2021/09/07 00:15:14;;;;;;;13.30;8.70;;;12.90;99.90;;;;;;5003601;28;20203;-60
2021/09/07 00:17:40;;;;;;;14.43;8.60;;;12.90;99.90;;;;;;5004336;28;20467;-60
2021/09/07 00:20:07;;;;;;;15.00;9.23;;;12.90;99.90;;;;;;5006839;28;20451;-60
2021/09/07 00:22:34;;;;;;;15.10;8.93;;;12.80;99.90;;;;;;5003442;28;20944;-60
2021/09/07 00:25:00;;;;;;;15.20;9.70;;;12.80;99.90;;;;;;5010213;28;20463;-59
2021/09/07 00:27:31;;;;;;;14.93;8.90;;;12.80;99.90;;;;;;5001759;28;20475;-60
2021/09/07 00:29:56;;;;;;;14.47;9.43;;;12.70;99.90;;;;;;5005271;28;20475;-61
2021/09/07 00:32:22;;;;;;;13.17;9.30;;;12.70;99.90;;;;;;5003679;28;20463;-59
2021/09/07 00:34:48;;;;;;;11.60;8.30;;;12.70;99.90;;;;;;5003346;28;20177;-60
2021/09/07 00:37:14;;;;;;;16.47;9.60;;;12.70;99.90;;;;;;4994936;28;20700;-60
2021/09/07 00:39:39;;;;;;;13.17;9.33;;;12.70;99.90;;;;;;5005673;28;20218;-60
2021/09/07 00:42:05;;;;;;;14.90;10.20;;;12.60;99.90;;;;;;5009928;28;20654;-60
2021/09/07 00:44:31;;;;;;;14.10;9.70;;;12.60;99.90;;;;;;5008862;28;20607;-62
2021/09/07 00:47:02;;;;;;;13.73;8.73;;;12.60;99.90;;;;;;5008284;28;20197;-59
2021/09/07 00:49:30;;;;;;;14.80;9.90;;;12.60;99.90;;;;;;5006571;28;20658;-60
2021/09/07 00:51:56;;;;;;;14.53;9.53;;;12.60;99.90;;;;;;5001329;28;20859;-60
2021/09/07 00:54:27;;;;;;;14.77;9.67;;;12.50;99.90;;;;;;5010403;28;20740;-60
2021/09/07 00:56:54;;;;;;;15.70;9.53;;;12.50;99.90;;;;;;4999805;28;20501;-59
2021/09/07 00:59:21;;;;;;;12.27;9.00;;;12.50;99.90;;;;;;4989989;28;20469;-60
2021/09/07 01:01:48;;;;;;;16.07;10.27;;;12.50;99.90;;;;;;4985645;28;20806;-59
2021/09/07 01:04:17;;;;;;;13.27;9.13;;;12.40;99.90;;;;;;5009031;28;20457;-59
2021/09/07 01:06:43;;;;;;;16.80;10.17;;;12.40;99.90;;;;;;4983807;28;20432;-59
2021/09/07 01:09:09;;;;;;;12.27;8.30;;;12.40;99.90;;;;;;5008709;28;20491;-59
2021/09/07 01:11:35;;;;;;;14.33;8.90;;;12.30;99.90;;;;;;4992599;28;20212;-60
2021/09/07 01:14:01;;;;;;;14.13;9.47;;;12.30;99.90;;;;;;5009842;28;20459;-60
2021/09/07 01:16:27;;;;;;;13.97;9.47;;;12.30;99.90;;;;;;5008027;28;21023;-59
2021/09/07 01:18:53;;;;;;;16.17;8.70;;;12.20;99.90;;;;;;5001985;28;20582;-60
2021/09/07 01:21:19;;;;;;;18.53;9.90;;;12.20;99.90;;;;;;5001045;28;20184;-59
2021/09/07 01:23:46;;;;;;;14.50;9.37;;;12.20;99.90;;;;;;5004714;28;20433;-60
2021/09/07 01:26:15;;;;;;;14.20;9.97;;;12.20;99.90;;;;;;5001556;28;20430;-59
2021/09/07 01:28:42;;;;;;;12.53;8.60;;;12.10;99.90;;;;;;5007344;28;20485;-59
2021/09/07 01:31:08;;;;;;;15.10;10.07;;;12.10;99.90;;;;;;5001955;28;20518;-59
2021/09/07 01:33:34;;;;;;;15.33;9.40;;;12.10;99.90;;;;;;5006189;28;20960;-60
2021/09/07 01:36:01;;;;;;;13.97;9.80;;;12.10;99.90;;;;;;4997528;28;20859;-59
2021/09/07 01:38:28;;;;;;;15.07;9.70;;;12.10;99.90;;;;;;5001209;28;20542;-59
2021/09/07 01:40:55;;;;;;;15.37;8.87;;;12.00;99.90;;;;;;5004221;28;20427;-59
2021/09/07 01:43:21;;;;;;;13.53;9.83;;;12.00;99.90;;;;;;4990147;28;20432;-59
2021/09/07 01:45:48;;;;;;;14.70;9.60;;;12.00;99.90;;;;;;5005275;28;21018;-58
2021/09/07 01:48:15;;;;;;;12.40;9.10;;;12.00;99.90;;;;;;4995347;28;20443;-60
2021/09/07 01:50:41;;;;;;;14.00;9.73;;;11.90;99.90;;;;;;5007838;28;20479;-59
2021/09/07 01:53:07;;;;;;;13.90;8.90;;;11.90;99.90;;;;;;5004777;28;20497;-59
2021/09/07 01:55:33;;;;;;;12.80;8.37;;;11.90;99.90;;;;;;5008542;28;20438;-59
2021/09/07 01:57:58;;;;;;;14.60;9.30;;;11.90;99.90;;;;;;5008990;28;20251;-59
2021/09/07 02:00:24;;;;;;;16.40;9.90;;;11.90;99.90;;;;;;4998365;28;20181;-59
2021/09/07 02:02:50;;;;;;;15.33;9.63;;;11.80;99.90;;;;;;5008401;28;20195;-59
2021/09/07 02:05:16;;;;;;;19.10;10.50;;;11.80;99.90;;;;;;4983722;28;20291;-59
2021/09/07 02:07:41;;;;;;;17.00;9.80;;;11.80;99.90;;;;;;5009682;28;20254;-59
2021/09/07 02:10:08;;;;;;;18.60;9.10;;;11.80;99.90;;;;;;5003361;28;20255;-59
2021/09/07 02:12:34;;;;;;;15.83;9.03;;;11.80;99.90;;;;;;5010682;28;20180;-59
2021/09/07 02:15:00;;;;;;;14.23;10.07;;;11.70;99.90;;;;;;5013976;28;21096;-59
2021/09/07 02:17:25;;;;;;;17.83;9.10;;;11.70;99.90;;;;;;5003724;28;20208;-59
2021/09/07 02:19:52;;;;;;;14.07;10.27;;;11.70;99.90;;;;;;5008069;28;20177;-60
2021/09/07 02:22:18;;;;;;;16.70;9.60;;;11.70;99.90;;;;;;5006193;28;20180;-59
2021/09/07 02:24:44;;;;;;;17.77;9.90;;;11.60;99.90;;;;;;5010816;28;20459;-58
2021/09/07 02:27:10;;;;;;;12.17;9.53;;;11.60;99.90;;;;;;5007852;28;21016;-59
2021/09/07 02:29:35;;;;;;;14.77;10.07;;;11.60;99.90;;;;;;5000284;28;20174;-59
2021/09/07 02:32:01;;;;;;;14.70;8.90;;;11.60;99.90;;;;;;5010107;28;20187;-58
2021/09/07 02:34:27;;;;;;;13.70;8.73;;;11.50;99.90;;;;;;5009545;28;20181;-59
2021/09/07 02:36:53;;;;;;;13.80;9.27;;;11.50;99.90;;;;;;5008232;28;20196;-59
2021/09/07 02:39:18;;;;;;;14.70;9.30;;;11.50;99.90;;;;;;5004043;28;20196;-59
2021/09/07 02:41:44;;;;;;;18.27;10.57;;;11.50;99.90;;;;;;4986000;28;20195;-60
2021/09/07 02:44:10;;;;;;;16.90;9.37;;;11.50;99.90;;;;;;5012091;28;20212;-60
2021/09/07 02:46:38;;;;;;;13.10;9.33;;;11.50;99.90;;;;;;5009822;28;20649;-57
2021/09/07 02:49:03;;;;;;;13.30;9.03;;;11.40;99.90;;;;;;4995347;28;20675;-59
2021/09/07 02:51:29;;;;;;;14.23;9.67;;;11.50;99.90;;;;;;5012316;28;20439;-60
2021/09/07 02:53:55;;;;;;;17.53;9.50;;;11.40;99.90;;;;;;5010069;28;20184;-60
2021/09/07 02:56:21;;;;;;;19.37;9.77;;;11.40;99.90;;;;;;5006271;28;20677;-59
2021/09/07 02:58:46;;;;;;;17.33;9.40;;;11.40;99.90;;;;;;5007897;28;20862;-59
2021/09/07 03:01:12;;;;;;;13.87;9.47;;;11.30;99.90;;;;;;4996377;28;20436;-59
2021/09/07 03:03:38;;;;;;;17.60;9.83;;;11.30;99.90;;;;;;5010224;28;20180;-59
2021/09/07 03:06:04;;;;;;;18.60;9.47;;;11.30;99.90;;;;;;4988768;28;20676;-59
2021/09/07 03:08:30;;;;;;;15.70;9.13;;;11.30;99.90;;;;;;4997193;28;20205;-59
2021/09/07 03:10:56;;;;;;;12.83;9.00;;;11.30;99.90;;;;;;5011994;28;20446;-59
2021/09/07 03:13:22;;;;;;;15.60;9.03;;;11.30;99.90;;;;;;5011340;28;20447;-60
2021/09/07 03:15:48;;;;;;;13.70;10.07;;;11.20;99.90;;;;;;5008164;28;20431;-60
2021/09/07 03:18:14;;;;;;;15.20;9.30;;;11.20;99.90;;;;;;5007012;28;20206;-60
2021/09/07 03:20:40;;;;;;;14.63;9.70;;;11.20;99.90;;;;;;5005428;28;20188;-60
2021/09/07 03:23:06;;;;;;;13.77;9.20;;;11.10;99.90;;;;;;5012520;28;20463;-60
2021/09/07 03:25:32;;;;;;;14.00;9.30;;;11.10;99.90;;;;;;5009037;28;21006;-62
2021/09/07 03:27:58;;;;;;;14.73;8.93;;;11.10;99.90;;;;;;4998214;28;20694;-58
2021/09/07 03:30:24;;;;;;;14.87;9.13;;;11.10;99.90;;;;;;4996033;28;20205;-59
2021/09/07 03:32:50;;;;;;;15.83;8.93;;;11.00;99.90;;;;;;5008874;28;20183;-59
2021/09/07 03:35:16;;;;;;;13.50;9.10;;;11.00;99.90;;;;;;5003278;28;20443;-59
2021/09/07 03:37:43;;;;;;;17.07;9.53;;;11.00;99.90;;;;;;4999412;28;20506;-58
2021/09/07 03:40:09;;;;;;;15.90;9.23;;;10.90;99.90;;;;;;5001776;28;20180;-61
2021/09/07 03:42:34;;;;;;;16.47;10.20;;;10.90;99.90;;;;;;5000036;28;20432;-60
2021/09/07 03:45:06;;;;;;;13.57;8.77;;;10.90;99.90;;;;;;5002040;28;20467;-59
2021/09/07 03:47:31;;;;;;;16.13;8.90;;;10.90;99.90;;;;;;4993140;28;20204;-59
2021/09/07 03:49:57;;;;;;;18.53;9.73;;;10.90;99.90;;;;;;5009406;28;20569;-60
2021/09/07 03:52:23;;;;;;;17.23;8.80;;;10.80;99.90;;;;;;5004772;28;20181;-58
2021/09/07 03:54:49;;;;;;;19.60;11.47;;;10.80;99.90;;;;;;5006882;28;20661;-60
2021/09/07 03:57:14;;;;;;;16.37;9.90;;;10.80;99.90;;;;;;5003125;28;20511;-59
2021/09/07 03:59:40;;;;;;;17.37;9.53;;;10.80;99.90;;;;;;5005414;28;20282;-60
2021/09/07 04:02:06;;;;;;;14.90;9.70;;;10.80;99.90;;;;;;4982219;28;20283;-60
2021/09/07 04:04:32;;;;;;;13.60;9.23;;;10.80;99.90;;;;;;5004545;28;20288;-60
2021/09/07 04:06:58;;;;;;;14.67;9.80;;;10.80;99.90;;;;;;4996305;28;20546;-58
2021/09/07 04:09:24;;;;;;;14.33;9.03;;;10.80;99.90;;;;;;4988645;28;20176;-59
2021/09/07 04:11:51;;;;;;;14.27;9.30;;;10.80;99.90;;;;;;4996778;28;20439;-58
2021/09/07 04:14:17;;;;;;;17.63;9.30;;;10.80;99.90;;;;;;4985529;28;20470;-59
2021/09/07 04:16:43;;;;;;;17.60;8.87;;;10.80;99.90;;;;;;4995104;28;20516;-60
2021/09/07 04:19:12;;;;;;;15.80;9.20;;;10.70;99.90;;;;;;4997388;28;20443;-59
2021/09/07 04:21:37;;;;;;;20.67;9.90;;;10.70;99.90;;;;;;5003371;28;20460;-61
2021/09/07 04:24:04;;;;;;;20.03;10.17;;;10.70;99.90;;;;;;4997193;28;20460;-59
2021/09/07 04:26:31;;;;;;;12.77;8.23;;;10.60;99.90;;;;;;4991796;28;20551;-58
2021/09/07 04:28:57;;;;;;;17.63;9.30;;;10.60;99.90;;;;;;4995332;28;20483;-59
2021/09/07 04:31:23;;;;;;;13.87;9.50;;;10.60;99.90;;;;;;4986335;28;20436;-59
2021/09/07 04:33:49;;;;;;;18.00;10.83;;;10.60;99.90;;;;;;4994349;28;20442;-61
2021/09/07 04:36:15;;;;;;;20.40;9.97;;;10.60;99.90;;;;;;4992528;28;21750;-58
2021/09/07 04:38:41;;;;;;;23.50;10.30;;;10.50;99.90;;;;;;4992189;28;20212;-59
2021/09/07 04:41:07;;;;;;;15.60;9.03;;;10.50;99.90;;;;;;4996921;28;20694;-59
2021/09/07 04:43:32;;;;;;;16.50;9.60;;;10.50;99.90;;;;;;4995603;28;20421;-59
2021/09/07 04:45:58;;;;;;;20.50;10.23;;;10.50;99.90;;;;;;5003369;28;20577;-60
2021/09/07 04:48:24;;;;;;;15.30;10.13;;;10.40;99.90;;;;;;4997495;28;20576;-59
2021/09/07 04:50:49;;;;;;;16.60;10.27;;;10.40;99.90;;;;;;4996450;28;20177;-59
2021/09/07 04:53:15;;;;;;;17.53;11.27;;;10.40;99.90;;;;;;5004374;28;20219;-59
2021/09/07 04:55:41;;;;;;;14.80;9.50;;;10.40;99.90;;;;;;4991618;28;20223;-59
2021/09/07 04:58:06;;;;;;;14.27;9.60;;;10.40;99.90;;;;;;5007288;28;20208;-59
2021/09/07 05:00:32;;;;;;;16.30;10.30;;;10.40;99.90;;;;;;4999663;28;20185;-61
2021/09/07 05:02:58;;;;;;;15.03;10.00;;;10.40;99.90;;;;;;4996074;28;20731;-59
2021/09/07 05:05:24;;;;;;;14.90;10.00;;;10.40;99.90;;;;;;4990395;28;20837;-59
2021/09/07 05:07:49;;;;;;;19.03;10.83;;;10.40;99.90;;;;;;4999410;28;20192;-59
2021/09/07 05:10:15;;;;;;;13.10;9.50;;;10.40;99.90;;;;;;5007589;28;20986;-59
2021/09/07 05:12:41;;;;;;;16.77;10.57;;;10.40;99.90;;;;;;5004608;28;20173;-58
2021/09/07 05:15:07;;;;;;;16.37;10.30;;;10.40;99.90;;;;;;4999412;28;20438;-60
2021/09/07 05:17:33;;;;;;;18.67;10.27;;;10.40;99.90;;;;;;5001725;28;20661;-59
2021/09/07 05:19:59;;;;;;;15.17;10.03;;;10.40;99.90;;;;;;5001443;28;20521;-59
2021/09/07 05:22:25;;;;;;;17.93;11.07;;;10.40;99.90;;;;;;5006766;28;20455;-60
2021/09/07 05:24:51;;;;;;;16.33;9.60;;;10.50;99.90;;;;;;4999740;28;20240;-59
2021/09/07 05:27:16;;;;;;;16.60;8.77;;;10.50;99.90;;;;;;4995778;28;20876;-58
2021/09/07 05:29:42;;;;;;;18.23;9.30;;;10.50;99.90;;;;;;5003110;28;20195;-59
2021/09/07 05:32:08;;;;;;;12.97;9.20;;;10.50;99.90;;;;;;4998888;28;20181;-59
2021/09/07 05:34:34;;;;;;;17.10;10.80;;;10.50;99.90;;;;;;4995521;28;20176;-60
2021/09/07 05:36:59;;;;;;;16.63;10.80;;;10.60;99.90;;;;;;5002607;28;20499;-59
2021/09/07 05:39:25;;;;;;;16.80;10.40;;;10.60;99.90;;;;;;4993552;28;20169;-61
2021/09/07 05:41:52;;;;;;;22.50;10.57;;;10.60;99.90;;;;;;4998258;28;20194;-60
2021/09/07 05:44:18;;;;;;;19.70;10.27;;;10.60;99.90;;;;;;4994011;28;20231;-59
2021/09/07 05:46:44;;;;;;;15.33;9.90;;;10.60;99.90;;;;;;5000503;28;20431;-60
2021/09/07 05:49:09;;;;;;;22.97;10.40;;;10.70;99.90;;;;;;5003839;28;20489;-59
2021/09/07 05:51:35;;;;;;;14.53;10.00;;;10.70;99.90;;;;;;4981477;28;20169;-60
2021/09/07 05:54:01;;;;;;;14.53;10.03;;;10.70;99.90;;;;;;4972041;28;20185;-59
2021/09/07 05:56:28;;;;;;;18.97;11.50;;;10.70;99.90;;;;;;5003989;28;20627;-60
2021/09/07 05:58:54;;;;;;;23.57;10.60;;;10.70;99.90;;;;;;5000234;28;20259;-59
2021/09/07 06:01:20;;;;;;;18.87;10.00;;;10.80;99.90;;;;;;5003303;28;20430;-59
2021/09/07 06:03:45;;;;;;;17.40;10.53;;;10.80;99.90;;;;;;4997160;28;20509;-59
2021/09/07 06:06:11;;;;;;;21.13;10.90;;;10.80;99.90;;;;;;4998020;28;20716;-60
2021/09/07 06:08:37;;;;;;;16.77;10.30;;;10.80;99.90;;;;;;4999958;28;20196;-60
2021/09/07 06:11:04;;;;;;;29.67;11.13;;;10.80;99.90;;;;;;5000273;28;20180;-60
2021/09/07 06:13:31;;;;;;;15.03;10.20;;;10.90;99.90;;;;;;5001975;28;20256;-60
2021/09/07 06:15:57;;;;;;;13.47;9.63;;;11.00;99.90;;;;;;4997983;28;20442;-60
2021/09/07 06:18:23;;;;;;;14.03;9.60;;;11.10;99.90;;;;;;4999015;28;20456;-59
2021/09/07 06:20:48;;;;;;;16.00;8.87;;;11.20;99.90;;;;;;4997699;28;20180;-59
2021/09/07 06:23:14;;;;;;;13.90;10.03;;;11.30;99.90;;;;;;5005692;28;20231;-60
2021/09/07 06:25:40;;;;;;;18.07;10.00;;;11.40;99.90;;;;;;4997022;28;20220;-62
2021/09/07 06:28:06;;;;;;;14.80;9.30;;;11.40;99.90;;;;;;5004606;28;20263;-60
2021/09/07 06:30:31;;;;;;;14.87;9.50;;;11.50;99.90;;;;;;4987463;28;20180;-58
2021/09/07 06:32:57;;;;;;;18.13;10.00;;;11.60;99.90;;;;;;4988672;28;20181;-59
2021/09/07 06:35:23;;;;;;;19.23;10.10;;;11.70;99.90;;;;;;5006249;28;20177;-60
2021/09/07 06:37:49;;;;;;;16.67;10.37;;;11.80;99.90;;;;;;4992740;28;20200;-60
2021/09/07 06:40:14;;;;;;;15.67;9.63;;;11.80;99.90;;;;;;4994719;28;20177;-61
2021/09/07 06:42:40;;;;;;;21.53;10.90;;;11.90;99.90;;;;;;4999660;28;20311;-59
2021/09/07 06:45:06;;;;;;;19.30;9.40;;;12.00;99.90;;;;;;5010246;28;20262;-60
2021/09/07 06:47:32;;;;;;;14.60;10.20;;;12.10;99.90;;;;;;5007078;28;20208;-60
2021/09/07 06:50:00;;;;;;;18.23;10.67;;;12.20;99.90;;;;;;4980795;28;20428;-59
2021/09/07 06:52:29;;;;;;;14.97;10.40;;;12.20;99.90;;;;;;5010667;28;20169;-60
2021/09/07 06:54:55;;;;;;;15.23;9.10;;;12.20;99.90;;;;;;5004390;28;20511;-60
2021/09/07 06:57:21;;;;;;;21.87;9.63;;;12.30;99.90;;;;;;4999664;28;20487;-60
2021/09/07 06:59:46;;;;;;;15.43;9.60;;;12.30;99.90;;;;;;5004857;28;20196;-59
2021/09/07 07:02:12;;;;;;;13.17;9.20;;;12.30;99.90;;;;;;5007874;28;20199;-62
2021/09/07 07:04:37;;;;;;;17.00;10.27;;;12.30;99.90;;;;;;5004657;28;20255;-60
2021/09/07 07:07:03;;;;;;;14.23;9.80;;;12.40;99.90;;;;;;5004328;28;20686;-60
2021/09/07 07:09:29;;;;;;;15.27;10.03;;;12.50;99.90;;;;;;5000261;28;20315;-60
2021/09/07 07:11:55;;;;;;;15.23;9.83;;;12.60;99.90;;;;;;5008408;28;20432;-59
2021/09/07 07:14:21;;;;;;;13.93;9.80;;;12.70;99.90;;;;;;5004782;28;20621;-60
2021/09/07 07:16:50;;;;;;;14.53;9.90;;;12.70;99.90;;;;;;5010116;28;20700;-59
2021/09/07 07:19:16;;;;;;;18.40;10.20;;;12.80;99.90;;;;;;5008456;28;20461;-61
2021/09/07 07:21:42;;;;;;;17.13;10.67;;;12.90;99.90;;;;;;5009024;28;20952;-60
2021/09/07 07:24:08;;;;;;;14.80;9.97;;;13.10;99.90;;;;;;5014305;28;20454;-59
2021/09/07 07:26:34;;;;;;;14.63;10.47;;;13.20;99.90;;;;;;5012708;28;21393;-59
2021/09/07 07:29:00;;;;;;;18.10;10.40;;;13.20;99.90;;;;;;5004905;28;20175;-59
2021/09/07 07:31:25;;;;;;;15.80;10.47;;;13.40;99.90;;;;;;5014554;28;20470;-60
2021/09/07 07:33:51;;;;;;;16.67;10.27;;;13.50;99.90;;;;;;5020691;28;20652;-59
2021/09/07 07:36:17;;;;;;;16.03;10.43;;;13.60;99.90;;;;;;5007511;28;20188;-59
2021/09/07 07:38:43;;;;;;;17.53;10.33;;;13.80;99.90;;;;;;5006994;28;20201;-59
2021/09/07 07:41:08;;;;;;;14.57;9.20;;;13.90;99.90;;;;;;5005459;28;20493;-59
2021/09/07 07:43:36;;;;;;;13.43;9.83;;;14.00;99.90;;;;;;5008361;28;20169;-59
2021/09/07 07:46:03;;;;;;;13.20;9.00;;;14.10;99.90;;;;;;4999500;28;20741;-58
2021/09/07 07:48:28;;;;;;;18.00;10.00;;;14.30;99.90;;;;;;4986642;28;20448;-59
2021/09/07 07:50:54;;;;;;;16.63;9.90;;;14.30;99.90;;;;;;4983852;28;20507;-59
2021/09/07 07:53:20;;;;;;;18.53;10.80;;;14.30;99.90;;;;;;5003099;28;20584;-61
2021/09/07 07:55:46;;;;;;;17.90;10.50;;;14.30;99.90;;;;;;4997172;28;20180;-59
2021/09/07 07:58:12;;;;;;;19.87;10.80;;;14.40;99.90;;;;;;4998647;28;20486;-61
2021/09/07 08:00:37;;;;;;;17.10;10.97;;;14.60;99.90;;;;;;5000262;28;20645;-62
2021/09/07 08:03:03;;;;;;;16.57;11.17;;;14.70;99.90;;;;;;5001901;28;20574;-59
2021/09/07 08:05:29;;;;;;;24.03;12.60;;;14.80;99.90;;;;;;5003114;28;20196;-59
2021/09/07 08:07:54;;;;;;;19.20;12.57;;;15.00;99.90;;;;;;4999232;28;20230;-58
2021/09/07 08:10:20;;;;;;;18.90;12.17;;;15.00;99.90;;;;;;5001036;28;21708;-58
2021/09/07 08:12:46;;;;;;;19.87;13.20;;;15.10;99.90;;;;;;4988327;28;20177;-56
2021/09/07 08:15:12;;;;;;;25.80;12.63;;;15.20;99.90;;;;;;4997257;28;20169;-57
2021/09/07 08:17:38;;;;;;;17.90;12.60;;;15.30;99.90;;;;;;5002729;28;20255;-59
2021/09/07 08:20:04;;;;;;;22.53;12.80;;;15.40;99.90;;;;;;5008235;28;20420;-58
2021/09/07 08:22:30;;;;;;;20.43;12.87;;;15.50;99.90;;;;;;5001654;28;20431;-58
2021/09/07 08:24:56;;;;;;;25.33;12.60;;;15.60;99.90;;;;;;5007139;28;20474;-57
2021/09/07 08:27:21;;;;;;;21.87;12.57;;;15.70;99.90;;;;;;5003035;28;20270;-58
2021/09/07 08:29:47;;;;;;;18.10;12.07;;;15.80;99.90;;;;;;5012129;28;20173;-60
2021/09/07 08:32:13;;;;;;;16.90;12.17;;;15.90;99.90;;;;;;4990523;28;20180;-57
2021/09/07 08:34:38;;;;;;;27.90;13.30;;;16.10;99.90;;;;;;5007633;28;20176;-59
2021/09/07 08:37:04;;;;;;;16.30;11.60;;;16.20;99.90;;;;;;5008603;28;20200;-58
2021/09/07 08:39:30;;;;;;;20.80;11.17;;;16.40;99.90;;;;;;5000506;28;20189;-59
2021/09/07 08:41:56;;;;;;;14.37;10.57;;;16.50;99.90;;;;;;5003231;28;20251;-60
2021/09/07 08:44:22;;;;;;;19.30;10.97;;;16.70;99.90;;;;;;5006531;28;20196;-56
2021/09/07 08:46:47;;;;;;;16.63;9.77;;;16.90;99.90;;;;;;5001683;28;20271;-56
2021/09/07 08:49:17;;;;;;;13.00;9.30;;;17.10;99.60;;;;;;5005661;28;20506;-58
2021/09/07 08:51:42;;;;;;;16.00;9.97;;;17.30;99.20;;;;;;5000307;28;20266;-58
2021/09/07 08:54:08;;;;;;;14.73;9.33;;;17.50;98.60;;;;;;4995672;28;20545;-61
2021/09/07 08:56:34;;;;;;;13.70;10.13;;;17.80;97.50;;;;;;4995881;28;20188;-58
2021/09/07 08:59:00;;;;;;;13.70;9.37;;;18.00;95.50;;;;;;5000694;28;20200;-59
2021/09/07 09:01:27;;;;;;;13.57;9.80;;;18.20;94.50;;;;;;4988169;28;20185;-61
2021/09/07 09:03:52;;;;;;;13.80;8.97;;;18.40;92.70;;;;;;4999574;28;20436;-60
2021/09/07 09:06:25;;;;;;;15.47;9.37;;;18.60;90.70;;;;;;5001707;28;20598;-61
2021/09/07 09:09:05;;;;;;;13.40;8.80;;;18.70;90.50;;;;;;5000717;28;20231;-63
2021/09/07 09:11:56;;;;;;;10.73;8.47;;;18.90;90.40;;;;;;4982424;28;20875;-62
2021/09/07 09:14:36;;;;;;;14.13;8.60;;;19.10;88.40;;;;;;4992429;28;20439;-60
2021/09/07 09:17:24;;;;;;;14.53;8.23;;;19.30;82.50;;;;;;4990510;28;20453;-60
2021/09/07 09:20:13;;;;;;;14.40;8.90;;;19.40;80.50;;;;;;5007464;28;20511;-62
2021/09/07 09:22:48;;;;;;;11.10;8.03;;;19.60;79.50;;;;;;4999868;28;20421;-60
2021/09/07 09:25:20;;;;;;;14.00;7.80;;;19.70;78.00;;;;;;5002285;28;21257;-61
2021/09/07 09:28:16;;;;;;;10.30;8.10;;;19.80;75.30;;;;;;4994237;28;20455;-60
2021/09/07 09:30:56;;;;;;;9.73;7.53;;;20.00;76.20;;;;;;5020793;22;21068;-59
2021/09/07 09:33:27;;;;;;;10.67;8.47;;;20.10;75.70;;;;;;5014677;28;20470;-60
2021/09/07 09:35:59;;;;;;;13.90;9.17;;;20.30;75.70;;;;;;5019809;28;20422;-60
2021/09/07 09:38:34;;;;;;;10.63;7.33;;;20.40;73.90;;;;;;5037848;28;20436;-60
2021/09/07 09:41:08;;;;;;;11.40;8.17;;;20.50;71.50;;;;;;5019910;28;20449;-62
2021/09/07 09:43:42;;;;;;;13.23;8.10;;;20.60;70.90;;;;;;5003291;28;21201;-60
2021/09/07 09:46:28;;;;;;;11.43;7.50;;;20.80;70.70;;;;;;5020520;28;20465;-59
2021/09/07 09:49:14;;;;;;;7.67;6.80;;;20.90;68.00;;;;;;5022205;28;20426;-61
2021/09/07 09:51:41;;;;;;;10.33;7.90;;;21.00;66.60;;;;;;5022001;28;20484;-60
2021/09/07 09:54:09;;;;;;;8.83;6.87;;;21.10;65.30;;;;;;5006636;28;20431;-62
2021/09/07 09:56:36;;;;;;;8.57;6.20;;;21.20;61.00;;;;;;5019508;28;20430;-61
2021/09/07 09:59:02;;;;;;;11.60;7.23;;;21.30;58.10;;;;;;5021598;28;20406;-60
2021/09/07 10:01:28;;;;;;;11.77;7.27;;;21.40;57.50;;;;;;5021019;28;20804;-60
2021/09/07 10:04:00;;;;;;;14.00;7.03;;;21.40;57.10;;;;;;5021938;28;20513;-62
2021/09/07 10:06:25;;;;;;;9.07;6.60;;;21.50;56.00;;;;;;5014202;28;20245;-63
2021/09/07 10:08:51;;;;;;;10.83;6.90;;;21.50;56.40;;;;;;5011861;28;20457;-59
2021/09/07 10:11:22;;;;;;;7.10;6.13;;;21.60;55.00;;;;;;4997430;28;20590;-60
2021/09/07 10:13:53;;;;;;;9.67;6.40;;;21.60;54.30;;;;;;5011768;28;20164;-61
2021/09/07 10:16:51;;;;;;;8.33;6.57;;;21.70;54.60;;;;;;5017536;28;21024;-60
2021/09/07 10:19:46;;;;;;;10.53;6.97;;;21.80;53.20;;;;;;5012365;28;20528;-60
2021/09/07 10:25:51;;;;;;;8.33;6.37;;;22.10;54.80;;;;;;5017976;28;20470;-61
2021/09/07 10:28:41;;;;;;;8.00;6.40;;;22.20;54.90;;;;;;5006624;28;20556;-60
2021/09/07 10:31:15;;;;;;;9.20;6.60;;;22.30;53.60;;;;;;5014526;28;20466;-61
2021/09/07 10:33:45;;;;;;;9.53;7.00;;;22.40;53.00;;;;;;5002500;28;21053;-60
2021/09/07 10:36:17;;;;;;;10.27;6.47;;;22.60;54.80;;;;;;5017744;28;20426;-61
2021/09/07 10:38:54;;;;;;;8.63;6.27;;;22.70;54.80;;;;;;5020364;28;20671;-62
2021/09/07 10:41:32;;;;;;;8.07;5.90;;;22.70;52.60;;;;;;5019951;28;20465;-60
2021/09/07 10:43:59;;;;;;;8.37;6.00;;;22.80;50.10;;;;;;5021832;28;20464;-60
2021/09/07 10:46:46;;;;;;;8.60;6.43;;;22.90;49.30;;;;;;5021748;28;20434;-60
2021/09/07 10:49:32;;;;;;;9.37;6.73;;;23.00;51.60;;;;;;5003305;28;20430;-60
2021/09/07 10:54:34;;;;;;;8.97;6.20;;;23.20;51.90;;;;;;5023432;28;21154;-58
2021/09/07 10:57:01;;;;;;;9.20;6.47;;;23.30;52.20;;;;;;5024532;28;20429;-60
2021/09/07 10:59:47;;;;;;;13.20;5.90;;;23.40;50.40;;;;;;5020268;28;20464;-59
2021/09/07 11:02:42;;;;;;;6.80;5.57;;;23.50;49.30;;;;;;5022971;28;20423;-59
2021/09/07 11:05:33;;;;;;;9.40;7.17;;;23.60;49.20;;;;;;5021541;28;20446;-62
2021/09/07 11:08:04;;;;;;;10.60;6.40;;;23.70;48.70;;;;;;5013242;28;20427;-60
2021/09/07 11:10:32;;;;;;;8.70;6.03;;;23.80;49.70;;;;;;5018784;28;20489;-59
2021/09/07 11:13:03;;;;;;;7.93;5.87;;;23.80;50.10;;;;;;5021632;28;20430;-62
2021/09/07 11:15:40;;;;;;;7.70;5.97;;;23.90;49.10;;;;;;5023247;28;21088;-60
2021/09/07 11:18:14;;;;;;;9.20;6.20;;;23.90;48.00;;;;;;5023315;28;20438;-59
2021/09/07 11:20:48;;;;;;;7.60;6.43;;;24.00;48.00;;;;;;5023854;28;20494;-62
2021/09/07 11:23:19;;;;;;;8.07;6.27;;;24.10;47.70;;;;;;5021708;28;20437;-60
2021/09/07 11:25:46;;;;;;;8.20;6.30;;;24.10;48.20;;;;;;5017045;28;20450;-60
2021/09/07 11:28:15;;;;;;;7.50;6.03;;;24.20;49.10;;;;;;5023052;28;20965;-60
2021/09/07 11:30:51;;;;;;;10.80;5.83;;;24.30;48.10;;;;;;5021272;28;20482;-60
2021/09/07 11:33:18;;;;;;;10.80;6.80;;;24.40;47.10;;;;;;5014050;28;20488;-59
2021/09/07 11:35:51;;;;;;;8.23;6.43;;;24.50;46.60;;;;;;5018424;28;22349;-59
2021/09/07 11:38:22;;;;;;;6.57;5.90;;;24.70;46.80;;;;;;5024452;28;20415;-59
2021/09/07 11:40:52;;;;;;;8.70;6.03;;;24.80;46.50;;;;;;5025207;28;20500;-61
2021/09/07 11:43:36;;;;;;;11.63;6.47;;;24.90;45.10;;;;;;5021315;28;20522;-60
2021/09/07 11:46:15;;;;;;;8.03;6.07;;;25.00;46.90;;;;;;5021903;28;20560;-61
2021/09/07 11:48:48;;;;;;;7.33;5.60;;;25.20;48.20;;;;;;5003979;28;20434;-58
2021/09/07 11:51:18;;;;;;;8.83;6.20;;;25.20;47.60;;;;;;5024438;28;20446;-60
2021/09/07 11:53:45;;;;;;;8.83;6.40;;;25.40;47.10;;;;;;5022616;28;20423;-60
2021/09/07 11:56:24;;;;;;;8.30;6.00;;;25.50;46.30;;;;;;5019191;28;20461;-59
2021/09/07 11:58:50;;;;;;;9.30;6.47;;;25.60;46.10;;;;;;5023027;28;20445;-60
2021/09/07 12:01:26;;;;;;;6.27;5.30;;;25.60;45.00;;;;;;5021675;28;20461;-60
2021/09/07 12:04:00;;;;;;;6.93;5.83;;;25.70;45.00;;;;;;5021126;28;20183;-60
2021/09/07 12:06:31;;;;;;;6.43;5.50;;;25.80;44.60;;;;;;5018371;28;20439;-60
2021/09/07 12:09:07;;;;;;;6.67;5.60;;;26.00;44.80;;;;;;5020378;28;20517;-60
2021/09/07 12:11:33;;;;;;;7.37;5.33;;;26.10;43.30;;;;;;5002846;28;20540;-60
2021/09/07 12:14:18;;;;;;;6.57;5.43;;;26.10;43.70;;;;;;5020546;28;20533;-60
2021/09/07 12:16:54;;;;;;;7.00;5.37;;;26.20;43.50;;;;;;5021188;28;20171;-60
2021/09/07 12:19:33;;;;;;;6.33;5.20;;;26.20;43.10;;;;;;5021963;28;20422;-59
2021/09/07 12:22:19;;;;;;;7.60;5.20;;;26.30;42.50;;;;;;5028298;28;20467;-58
2021/09/07 12:25:07;;;;;;;9.00;6.03;;;26.30;43.10;;;;;;5027627;28;20450;-57
2021/09/07 12:27:42;;;;;;;10.40;6.00;;;26.40;41.70;;;;;;5027635;28;20464;-60
2021/09/07 12:30:33;;;;;;;6.57;5.67;;;26.50;41.10;;;;;;5028458;28;20460;-59
2021/09/07 12:33:10;;;;;;;9.80;5.30;;;26.60;41.60;;;;;;5032537;28;20402;-58
2021/09/07 12:35:40;;;;;;;8.87;5.40;;;26.70;43.10;;;;;;5029856;28;20417;-61
2021/09/07 12:38:10;;;;;;;6.97;5.90;;;26.90;42.60;;;;;;5028212;28;20440;-61
2021/09/07 12:40:37;;;;;;;8.33;5.27;;;27.10;41.90;;;;;;5028483;28;20453;-59
2021/09/07 12:43:08;;;;;;;5.40;4.90;;;27.10;42.10;;;;;;5028855;28;20402;-60
2021/09/07 12:45:33;;;;;;;13.97;5.30;;;27.20;41.60;;;;;;5027699;28;20598;-59
2021/09/07 12:47:59;;;;;;;8.13;5.50;;;27.20;41.50;;;;;;5029015;28;20873;-60